Terminal Aerodrome Forecast
Issued by NWS St Louis, MO

Home | Current Version | Previous Version | Text Only | Print | Product List | Glossary On
Versions: 1 2 3 4 5 6 7 8 9 10 11 12 13 14 15 16 17 18 19 20 21
825
FTUS43 KLSX 221405 AAB
TAFCOU
TAF AMD
KCOU 221405Z 2214/2312 33012KT P6SM -SHRA OVC006
     FM221600 32010KT P6SM VCSH BKN025
     FM221800 32009KT P6SM BKN040
     FM222000 33006KT P6SM SCT150=

USA.gov is the U.S. government's official web portal to all federal, state and local government web resources and services.